SWR647 LSZH-LFPO
Flight info
| Callsign | SWR647 |
|---|---|
| Flight time | 0h 57m |
| Altitude | 33000 |
| Route | VEBIT T51 LASUN T14 MOROK DCT PENDU DCT JAVVU UL856 DJL |
| Aircraft | A321/M-SDE3FGHIRWY/LB1 |
Departure
| Time | 2026-05-06 14:26 |
|---|---|
| Airport | Zürich Airport (LSZH) |
Arrival
| Time | 2026-05-06 15:23 |
|---|---|
| Airport | Paris-Orly Airport (LFPO) |
| Time | Latitude | Longitude | Altitude | Speed | Heading |
|---|---|---|---|---|---|
| 2026-05-06 14:07 | 47.45428 | 8.55804 | 1407 ft | 0 kts | 186° |
| 2026-05-06 14:16 | 47.45438 | 8.55806 | 1414 ft | 3 kts | 186° |
| 2026-05-06 14:16 | 47.45456 | 8.55809 | 1410 ft | 2 kts | 186° |
| 2026-05-06 14:17 | 47.45473 | 8.55811 | 1408 ft | 3 kts | 168° |
| 2026-05-06 14:17 | 47.45490 | 8.55802 | 1409 ft | 3 kts | 139° |
| 2026-05-06 14:17 | 47.45502 | 8.55782 | 1408 ft | 3 kts | 110° |
| 2026-05-06 14:17 | 47.45505 | 8.55770 | 1410 ft | 0 kts | 96° |
| 2026-05-06 14:20 | 47.45505 | 8.55783 | 1414 ft | 7 kts | 94° |
| 2026-05-06 14:20 | 47.45496 | 8.55941 | 1407 ft | 19 kts | 97° |
| 2026-05-06 14:20 | 47.45483 | 8.56119 | 1407 ft | 17 kts | 98° |
| 2026-05-06 14:21 | 47.45506 | 8.56263 | 1413 ft | 12 kts | 51° |
| 2026-05-06 14:21 | 47.45546 | 8.56339 | 1413 ft | 5 kts | 52° |
| 2026-05-06 14:21 | 47.45575 | 8.56396 | 1416 ft | 17 kts | 52° |
| 2026-05-06 14:21 | 47.45588 | 8.56583 | 1416 ft | 16 kts | 94° |
| 2026-05-06 14:22 | 47.45575 | 8.56730 | 1421 ft | 16 kts | 94° |
| 2026-05-06 14:22 | 47.45564 | 8.56934 | 1421 ft | 17 kts | 91° |
| 2026-05-06 14:22 | 47.45578 | 8.56995 | 1422 ft | 0 kts | 54° |
| 2026-05-06 14:24 | 47.45589 | 8.57008 | 1423 ft | 10 kts | 35° |
| 2026-05-06 14:24 | 47.45663 | 8.56987 | 1424 ft | 11 kts | 278° |
| 2026-05-06 14:25 | 47.45665 | 8.56950 | 1424 ft | 0 kts | 278° |
| 2026-05-06 14:25 | 47.45672 | 8.56880 | 1423 ft | 32 kts | 278° |
| 2026-05-06 14:25 | 47.45726 | 8.56044 | 1412 ft | 125 kts | 277° |
| 2026-05-06 14:26 | 47.45846 | 8.54456 | 1651 ft | 175 kts | 274° |
| 2026-05-06 14:26 | 47.45989 | 8.52580 | 2403 ft | 193 kts | 274° |
| 2026-05-06 14:26 | 47.46134 | 8.50479 | 3181 ft | 218 kts | 274° |
| 2026-05-06 14:26 | 47.46182 | 8.48121 | 4008 ft | 241 kts | 257° |
| 2026-05-06 14:27 | 47.45351 | 8.45956 | 5095 ft | 251 kts | 224° |
| 2026-05-06 14:27 | 47.44015 | 8.44265 | 6424 ft | 254 kts | 222° |
| 2026-05-06 14:27 | 47.42681 | 8.42537 | 7665 ft | 256 kts | 227° |
| 2026-05-06 14:27 | 47.41524 | 8.40520 | 8877 ft | 259 kts | 234° |
| 2026-05-06 14:28 | 47.40479 | 8.38328 | 9897 ft | 263 kts | 236° |
| 2026-05-06 14:28 | 47.39442 | 8.36009 | 10304 ft | 281 kts | 237° |
| 2026-05-06 14:28 | 47.38438 | 8.33402 | 10539 ft | 303 kts | 245° |
| 2026-05-06 14:28 | 47.37513 | 8.30553 | 11093 ft | 312 kts | 243° |
| 2026-05-06 14:29 | 47.36525 | 8.27675 | 11780 ft | 317 kts | 242° |
| 2026-05-06 14:29 | 47.35498 | 8.24775 | 12501 ft | 321 kts | 241° |
| 2026-05-06 14:29 | 47.34449 | 8.21850 | 13200 ft | 326 kts | 241° |
| 2026-05-06 14:29 | 47.33380 | 8.18871 | 13877 ft | 330 kts | 241° |
| 2026-05-06 14:30 | 47.32300 | 8.15854 | 14488 ft | 335 kts | 241° |
| 2026-05-06 14:30 | 47.31207 | 8.12802 | 15105 ft | 339 kts | 240° |
| 2026-05-06 14:30 | 47.30114 | 8.09743 | 15735 ft | 344 kts | 240° |
| 2026-05-06 14:30 | 47.28981 | 8.06566 | 16377 ft | 348 kts | 240° |
| 2026-05-06 14:31 | 47.27894 | 8.03408 | 16983 ft | 353 kts | 244° |
| 2026-05-06 14:31 | 47.27153 | 7.99932 | 17585 ft | 360 kts | 256° |
| 2026-05-06 14:31 | 47.26916 | 7.96230 | 18184 ft | 368 kts | 268° |
| 2026-05-06 14:31 | 47.26976 | 7.92442 | 18715 ft | 372 kts | 268° |
| 2026-05-06 14:32 | 47.27027 | 7.88620 | 19240 ft | 375 kts | 268° |
| 2026-05-06 14:32 | 47.27059 | 7.85628 | 19617 ft | 378 kts | 268° |
| 2026-05-06 14:32 | 47.27100 | 7.81739 | 20127 ft | 381 kts | 268° |
| 2026-05-06 14:33 | 47.27142 | 7.77817 | 20612 ft | 385 kts | 268° |
| 2026-05-06 14:33 | 47.27184 | 7.73860 | 21082 ft | 388 kts | 268° |
| 2026-05-06 14:33 | 47.27228 | 7.69867 | 21545 ft | 392 kts | 268° |
| 2026-05-06 14:33 | 47.27271 | 7.65840 | 22015 ft | 395 kts | 268° |
| 2026-05-06 14:34 | 47.27315 | 7.61780 | 22466 ft | 398 kts | 268° |
| 2026-05-06 14:34 | 47.27358 | 7.57686 | 22931 ft | 402 kts | 268° |
| 2026-05-06 14:34 | 47.27398 | 7.53559 | 23391 ft | 405 kts | 268° |
| 2026-05-06 14:34 | 47.27434 | 7.49401 | 23765 ft | 408 kts | 268° |
| 2026-05-06 14:35 | 47.27470 | 7.45214 | 24191 ft | 410 kts | 268° |
| 2026-05-06 14:35 | 47.27506 | 7.41009 | 24611 ft | 412 kts | 268° |
| 2026-05-06 14:35 | 47.27540 | 7.36788 | 25073 ft | 413 kts | 267° |
| 2026-05-06 14:35 | 47.27573 | 7.32559 | 25532 ft | 414 kts | 267° |
| 2026-05-06 14:36 | 47.27606 | 7.28306 | 25980 ft | 416 kts | 267° |
| 2026-05-06 14:36 | 47.27638 | 7.24039 | 26408 ft | 417 kts | 267° |
| 2026-05-06 14:36 | 47.27667 | 7.19761 | 26810 ft | 419 kts | 267° |
| 2026-05-06 14:36 | 47.27697 | 7.15460 | 27197 ft | 421 kts | 267° |
| 2026-05-06 14:37 | 47.27726 | 7.11134 | 27588 ft | 423 kts | 267° |
| 2026-05-06 14:37 | 47.27748 | 7.06793 | 27984 ft | 425 kts | 267° |
| 2026-05-06 14:37 | 47.27767 | 7.02424 | 28382 ft | 428 kts | 267° |
| 2026-05-06 14:37 | 47.27783 | 6.98036 | 28773 ft | 430 kts | 267° |
| 2026-05-06 14:38 | 47.27799 | 6.93614 | 29174 ft | 433 kts | 267° |
| 2026-05-06 14:38 | 47.27814 | 6.89166 | 29555 ft | 436 kts | 267° |
| 2026-05-06 14:38 | 47.27828 | 6.84691 | 29926 ft | 438 kts | 267° |
| 2026-05-06 14:38 | 47.27840 | 6.80195 | 30203 ft | 441 kts | 267° |
| 2026-05-06 14:39 | 47.27851 | 6.75674 | 30460 ft | 443 kts | 267° |
| 2026-05-06 14:39 | 47.27862 | 6.71127 | 30710 ft | 445 kts | 267° |
| 2026-05-06 14:39 | 47.27870 | 6.66560 | 30959 ft | 447 kts | 267° |
| 2026-05-06 14:39 | 47.27876 | 6.61983 | 31276 ft | 447 kts | 267° |
| 2026-05-06 14:40 | 47.27881 | 6.57416 | 31631 ft | 446 kts | 267° |
| 2026-05-06 14:40 | 47.27886 | 6.52855 | 31977 ft | 445 kts | 267° |
| 2026-05-06 14:40 | 47.27890 | 6.48302 | 32325 ft | 444 kts | 267° |
| 2026-05-06 14:40 | 47.27894 | 6.43754 | 32680 ft | 443 kts | 267° |
| 2026-05-06 14:41 | 47.27898 | 6.39213 | 32877 ft | 442 kts | 267° |
| 2026-05-06 14:41 | 47.27902 | 6.34749 | 32904 ft | 431 kts | 267° |
| 2026-05-06 14:41 | 47.27894 | 6.26009 | 32903 ft | 425 kts | 266° |
| 2026-05-06 14:42 | 47.27863 | 6.17309 | 32900 ft | 425 kts | 267° |
| 2026-05-06 14:42 | 47.27832 | 6.08596 | 32903 ft | 426 kts | 267° |
| 2026-05-06 14:43 | 47.27800 | 5.99926 | 32901 ft | 427 kts | 267° |
| 2026-05-06 14:43 | 47.27765 | 5.91186 | 32903 ft | 427 kts | 267° |
| 2026-05-06 14:44 | 47.27724 | 5.82387 | 32900 ft | 427 kts | 267° |
| 2026-05-06 14:45 | 47.27639 | 5.69326 | 32892 ft | 427 kts | 267° |
| 2026-05-06 14:45 | 47.27575 | 5.60575 | 32890 ft | 428 kts | 267° |
| 2026-05-06 14:46 | 47.27499 | 5.51812 | 32890 ft | 428 kts | 267° |
| 2026-05-06 14:46 | 47.27424 | 5.43047 | 32877 ft | 429 kts | 267° |
| 2026-05-06 14:47 | 47.27348 | 5.34266 | 32864 ft | 429 kts | 267° |
| 2026-05-06 14:47 | 47.27255 | 5.25490 | 32856 ft | 429 kts | 267° |
| 2026-05-06 14:48 | 47.27290 | 5.16709 | 32853 ft | 431 kts | 275° |
| 2026-05-06 14:48 | 47.29013 | 5.08247 | 32870 ft | 440 kts | 296° |
| 2026-05-06 14:48 | 47.30665 | 5.04403 | 32868 ft | 450 kts | 307° |
| 2026-05-06 14:49 | 47.32782 | 5.00953 | 32866 ft | 457 kts | 313° |
| 2026-05-06 14:49 | 47.35008 | 4.97549 | 31997 ft | 466 kts | 313° |
| 2026-05-06 14:49 | 47.37285 | 4.94050 | 30624 ft | 478 kts | 314° |
| 2026-05-06 14:49 | 47.39598 | 4.90483 | 29344 ft | 484 kts | 314° |
| 2026-05-06 14:50 | 47.41933 | 4.86870 | 28008 ft | 487 kts | 314° |
| 2026-05-06 14:50 | 47.43482 | 4.84469 | 27158 ft | 489 kts | 314° |
| 2026-05-06 14:50 | 47.46628 | 4.79590 | 25426 ft | 491 kts | 314° |
| 2026-05-06 14:50 | 47.48980 | 4.75934 | 24342 ft | 489 kts | 314° |
| 2026-05-06 14:51 | 47.51295 | 4.72331 | 23664 ft | 478 kts | 314° |
| 2026-05-06 14:51 | 47.53563 | 4.68796 | 22850 ft | 470 kts | 314° |
| 2026-05-06 14:51 | 47.55044 | 4.66490 | 22278 ft | 465 kts | 314° |
| 2026-05-06 14:51 | 47.57260 | 4.63040 | 21472 ft | 459 kts | 314° |
| 2026-05-06 14:52 | 47.59445 | 4.59639 | 20671 ft | 453 kts | 314° |
| 2026-05-06 14:52 | 47.61604 | 4.56277 | 19879 ft | 447 kts | 313° |
| 2026-05-06 14:52 | 47.63728 | 4.52957 | 19109 ft | 442 kts | 313° |
| 2026-05-06 14:52 | 47.65825 | 4.49665 | 18360 ft | 437 kts | 313° |
| 2026-05-06 14:53 | 47.67901 | 4.46405 | 17557 ft | 432 kts | 313° |
| 2026-05-06 14:53 | 47.69946 | 4.43189 | 16793 ft | 426 kts | 313° |
| 2026-05-06 14:53 | 47.71961 | 4.40016 | 16036 ft | 419 kts | 313° |
| 2026-05-06 14:53 | 47.73947 | 4.36886 | 15274 ft | 413 kts | 313° |
| 2026-05-06 14:54 | 47.75904 | 4.33800 | 14501 ft | 407 kts | 313° |
| 2026-05-06 14:54 | 47.77830 | 4.30758 | 13737 ft | 402 kts | 313° |
| 2026-05-06 14:54 | 47.79731 | 4.27756 | 12897 ft | 396 kts | 313° |
| 2026-05-06 14:54 | 47.81608 | 4.24791 | 12175 ft | 389 kts | 313° |
| 2026-05-06 14:55 | 47.83421 | 4.21919 | 11935 ft | 372 kts | 312° |
| 2026-05-06 14:55 | 47.85144 | 4.19189 | 11890 ft | 351 kts | 312° |
| 2026-05-06 14:55 | 47.86704 | 4.16548 | 11897 ft | 329 kts | 306° |
| 2026-05-06 14:55 | 47.87889 | 4.13751 | 11900 ft | 310 kts | 297° |
| 2026-05-06 14:56 | 47.88715 | 4.10893 | 11899 ft | 292 kts | 288° |
| 2026-05-06 14:56 | 47.89221 | 4.08065 | 11899 ft | 274 kts | 282° |
| 2026-05-06 14:56 | 47.89608 | 4.05375 | 11902 ft | 257 kts | 282° |
| 2026-05-06 14:56 | 47.89975 | 4.02863 | 11901 ft | 240 kts | 283° |
| 2026-05-06 14:57 | 47.90320 | 4.00521 | 11899 ft | 223 kts | 283° |
| 2026-05-06 14:57 | 47.90639 | 3.98346 | 11890 ft | 206 kts | 283° |
| 2026-05-06 14:57 | 47.90939 | 3.96297 | 11626 ft | 203 kts | 283° |
| 2026-05-06 14:57 | 47.91255 | 3.94212 | 11178 ft | 209 kts | 284° |
| 2026-05-06 14:58 | 47.91659 | 3.92124 | 10831 ft | 209 kts | 288° |
| 2026-05-06 14:58 | 47.92091 | 3.90078 | 10573 ft | 205 kts | 283° |
| 2026-05-06 14:58 | 47.92428 | 3.88036 | 10268 ft | 203 kts | 294° |
| 2026-05-06 14:58 | 47.92965 | 3.86089 | 9949 ft | 201 kts | 289° |
| 2026-05-06 14:59 | 47.93289 | 3.84069 | 9650 ft | 200 kts | 278° |
| 2026-05-06 14:59 | 47.93383 | 3.82004 | 9326 ft | 199 kts | 270° |
| 2026-05-06 14:59 | 47.93357 | 3.79964 | 9136 ft | 202 kts | 270° |
| 2026-05-06 14:59 | 47.93347 | 3.77815 | 9767 ft | 204 kts | 272° |
| 2026-05-06 15:00 | 47.93387 | 3.75825 | 10588 ft | 180 kts | 274° |
| 2026-05-06 15:00 | 47.93477 | 3.73924 | 10371 ft | 196 kts | 276° |
| 2026-05-06 15:00 | 47.93587 | 3.71784 | 10022 ft | 216 kts | 274° |
| 2026-05-06 15:00 | 47.93644 | 3.69519 | 9930 ft | 220 kts | 276° |
| 2026-05-06 15:01 | 47.94010 | 3.67298 | 9913 ft | 222 kts | 291° |
| 2026-05-06 15:01 | 47.94589 | 3.65159 | 9915 ft | 223 kts | 292° |
| 2026-05-06 15:01 | 47.95177 | 3.63018 | 9915 ft | 223 kts | 292° |
| 2026-05-06 15:01 | 47.95768 | 3.60880 | 9918 ft | 223 kts | 294° |
| 2026-05-06 15:02 | 47.96421 | 3.58781 | 9916 ft | 223 kts | 296° |
| 2026-05-06 15:02 | 47.97155 | 3.56739 | 9916 ft | 223 kts | 300° |
| 2026-05-06 15:02 | 47.98018 | 3.54812 | 9917 ft | 224 kts | 307° |
| 2026-05-06 15:02 | 47.99045 | 3.53068 | 9914 ft | 224 kts | 314° |
| 2026-05-06 15:03 | 48.00139 | 3.51411 | 9917 ft | 224 kts | 313° |
| 2026-05-06 15:03 | 48.01232 | 3.49747 | 9919 ft | 224 kts | 313° |
| 2026-05-06 15:03 | 48.02320 | 3.48085 | 9920 ft | 224 kts | 313° |
| 2026-05-06 15:03 | 48.03407 | 3.46420 | 9914 ft | 224 kts | 313° |
| 2026-05-06 15:04 | 48.04493 | 3.44753 | 9919 ft | 224 kts | 313° |
| 2026-05-06 15:04 | 48.05563 | 3.43109 | 9919 ft | 224 kts | 313° |
| 2026-05-06 15:04 | 48.06648 | 3.41447 | 9916 ft | 223 kts | 313° |
| 2026-05-06 15:04 | 48.07735 | 3.39787 | 9919 ft | 223 kts | 313° |
| 2026-05-06 15:05 | 48.08822 | 3.38129 | 9921 ft | 223 kts | 313° |
| 2026-05-06 15:05 | 48.09907 | 3.36470 | 9919 ft | 223 kts | 313° |
| 2026-05-06 15:05 | 48.10991 | 3.34805 | 9921 ft | 223 kts | 313° |
| 2026-05-06 15:05 | 48.12074 | 3.33139 | 9919 ft | 223 kts | 313° |
| 2026-05-06 15:06 | 48.13158 | 3.31476 | 9915 ft | 223 kts | 313° |
| 2026-05-06 15:06 | 48.14243 | 3.29813 | 9923 ft | 223 kts | 313° |
| 2026-05-06 15:06 | 48.15328 | 3.28149 | 9917 ft | 223 kts | 313° |
| 2026-05-06 15:06 | 48.16410 | 3.26481 | 9920 ft | 223 kts | 313° |
| 2026-05-06 15:07 | 48.17494 | 3.24811 | 9920 ft | 224 kts | 313° |
| 2026-05-06 15:07 | 48.18578 | 3.23138 | 9923 ft | 224 kts | 313° |
| 2026-05-06 15:07 | 48.19664 | 3.21463 | 9920 ft | 224 kts | 313° |
| 2026-05-06 15:07 | 48.20748 | 3.19793 | 9921 ft | 224 kts | 313° |
| 2026-05-06 15:08 | 48.21834 | 3.18123 | 9915 ft | 223 kts | 313° |
| 2026-05-06 15:08 | 48.22923 | 3.16445 | 9433 ft | 230 kts | 313° |
| 2026-05-06 15:08 | 48.24071 | 3.14671 | 8434 ft | 244 kts | 314° |
| 2026-05-06 15:08 | 48.25291 | 3.12788 | 7287 ft | 258 kts | 314° |
| 2026-05-06 15:09 | 48.26576 | 3.10806 | 6117 ft | 271 kts | 315° |
| 2026-05-06 15:09 | 48.27873 | 3.08803 | 5455 ft | 262 kts | 315° |
| 2026-05-06 15:09 | 48.29103 | 3.06837 | 5005 ft | 255 kts | 310° |
| 2026-05-06 15:09 | 48.30062 | 3.04609 | 4724 ft | 253 kts | 298° |
| 2026-05-06 15:10 | 48.30837 | 3.02237 | 3897 ft | 253 kts | 298° |
| 2026-05-06 15:10 | 48.31599 | 2.99861 | 3177 ft | 251 kts | 297° |
| 2026-05-06 15:10 | 48.32346 | 2.97518 | 2959 ft | 247 kts | 297° |
| 2026-05-06 15:10 | 48.33078 | 2.95220 | 2912 ft | 240 kts | 297° |
| 2026-05-06 15:11 | 48.33785 | 2.92996 | 2914 ft | 232 kts | 297° |
| 2026-05-06 15:11 | 48.34473 | 2.90840 | 2911 ft | 225 kts | 298° |
| 2026-05-06 15:11 | 48.35136 | 2.88762 | 2938 ft | 211 kts | 298° |
| 2026-05-06 15:11 | 48.35758 | 2.86807 | 2914 ft | 208 kts | 298° |
| 2026-05-06 15:12 | 48.36394 | 2.84818 | 2910 ft | 214 kts | 298° |
| 2026-05-06 15:12 | 48.37039 | 2.82807 | 2913 ft | 208 kts | 298° |
| 2026-05-06 15:12 | 48.37651 | 2.80892 | 2915 ft | 202 kts | 298° |
| 2026-05-06 15:12 | 48.38260 | 2.78988 | 2914 ft | 202 kts | 298° |
| 2026-05-06 15:13 | 48.38868 | 2.77084 | 2918 ft | 202 kts | 298° |
| 2026-05-06 15:13 | 48.39472 | 2.75187 | 2917 ft | 201 kts | 298° |
| 2026-05-06 15:13 | 48.40074 | 2.73290 | 2917 ft | 201 kts | 298° |
| 2026-05-06 15:13 | 48.40676 | 2.71394 | 2920 ft | 201 kts | 298° |
| 2026-05-06 15:14 | 48.41282 | 2.69494 | 2919 ft | 201 kts | 298° |
| 2026-05-06 15:14 | 48.41886 | 2.67597 | 2919 ft | 201 kts | 298° |
| 2026-05-06 15:14 | 48.42492 | 2.65694 | 2918 ft | 201 kts | 298° |
| 2026-05-06 15:14 | 48.43094 | 2.63795 | 2921 ft | 202 kts | 298° |
| 2026-05-06 15:15 | 48.43698 | 2.61889 | 2919 ft | 202 kts | 298° |
| 2026-05-06 15:15 | 48.44301 | 2.59981 | 2919 ft | 201 kts | 297° |
| 2026-05-06 15:15 | 48.44900 | 2.58080 | 2919 ft | 201 kts | 297° |
| 2026-05-06 15:15 | 48.45500 | 2.56179 | 2916 ft | 201 kts | 298° |
| 2026-05-06 15:16 | 48.46099 | 2.54278 | 2917 ft | 201 kts | 298° |
| 2026-05-06 15:16 | 48.46703 | 2.52368 | 2923 ft | 202 kts | 297° |
| 2026-05-06 15:16 | 48.47306 | 2.50461 | 2918 ft | 201 kts | 297° |
| 2026-05-06 15:16 | 48.47905 | 2.48563 | 2916 ft | 201 kts | 297° |
| 2026-05-06 15:17 | 48.48502 | 2.46666 | 2918 ft | 200 kts | 297° |
| 2026-05-06 15:17 | 48.49098 | 2.44772 | 2916 ft | 199 kts | 297° |
| 2026-05-06 15:17 | 48.49691 | 2.42883 | 2917 ft | 200 kts | 297° |
| 2026-05-06 15:17 | 48.50285 | 2.40986 | 2920 ft | 200 kts | 297° |
| 2026-05-06 15:18 | 48.50879 | 2.39090 | 2918 ft | 200 kts | 297° |
| 2026-05-06 15:18 | 48.51471 | 2.37205 | 2917 ft | 199 kts | 297° |
| 2026-05-06 15:18 | 48.52064 | 2.35320 | 2916 ft | 199 kts | 297° |
| 2026-05-06 15:18 | 48.52651 | 2.33452 | 2917 ft | 200 kts | 297° |
| 2026-05-06 15:19 | 48.53252 | 2.31557 | 2916 ft | 200 kts | 300° |
| 2026-05-06 15:19 | 48.54189 | 2.30079 | 2922 ft | 197 kts | 333° |
| 2026-05-06 15:19 | 48.55511 | 2.29643 | 2919 ft | 198 kts | 5° |
| 2026-05-06 15:19 | 48.56846 | 2.30213 | 2927 ft | 200 kts | 17° |
| 2026-05-06 15:20 | 48.58160 | 2.30884 | 2923 ft | 196 kts | 16° |
| 2026-05-06 15:20 | 48.59423 | 2.31517 | 2945 ft | 186 kts | 16° |
| 2026-05-06 15:20 | 48.60580 | 2.32053 | 3092 ft | 163 kts | 13° |
| 2026-05-06 15:20 | 48.61642 | 2.32499 | 2997 ft | 157 kts | 13° |
| 2026-05-06 15:21 | 48.62685 | 2.32946 | 2854 ft | 155 kts | 14° |
| 2026-05-06 15:21 | 48.63721 | 2.33410 | 2696 ft | 155 kts | 14° |
| 2026-05-06 15:21 | 48.64740 | 2.33906 | 2469 ft | 158 kts | 18° |
| 2026-05-06 15:21 | 48.65816 | 2.34450 | 2097 ft | 166 kts | 16° |
| 2026-05-06 15:22 | 48.66908 | 2.35042 | 1793 ft | 167 kts | 18° |
| 2026-05-06 15:22 | 48.68033 | 2.35687 | 1285 ft | 177 kts | 18° |
| 2026-05-06 15:22 | 48.69184 | 2.36317 | 906 ft | 174 kts | 18° |
| 2026-05-06 15:22 | 48.70319 | 2.36917 | 602 ft | 169 kts | 14° |
| 2026-05-06 15:23 | 48.71404 | 2.37481 | 392 ft | 164 kts | 19° |
| 2026-05-06 15:23 | 48.72420 | 2.38011 | 300 ft | 141 kts | 18° |
| 2026-05-06 15:23 | 48.73100 | 2.38336 | 297 ft | 38 kts | 19° |
| 2026-05-06 15:23 | 48.73134 | 2.38353 | 297 ft | 3 kts | 19° |
| 2026-05-06 15:24 | 48.73329 | 2.38448 | 299 ft | 30 kts | 4° |
| 2026-05-06 15:24 | 48.73369 | 2.38412 | 298 ft | 2 kts | 260° |
| 2026-05-06 15:24 | 48.73355 | 2.38343 | 298 ft | 11 kts | 253° |
| 2026-05-06 15:24 | 48.73336 | 2.38231 | 298 ft | 11 kts | 251° |
| 2026-05-06 15:25 | 48.73303 | 2.38135 | 296 ft | 10 kts | 249° |
| 2026-05-06 15:25 | 48.73295 | 2.38037 | 301 ft | 8 kts | 252° |
| 2026-05-06 15:25 | 48.73255 | 2.37992 | 298 ft | 7 kts | 198° |
| 2026-05-06 15:25 | 48.73213 | 2.37973 | 298 ft | 6 kts | 198° |
| 2026-05-06 15:26 | 48.73177 | 2.37952 | 297 ft | 5 kts | 202° |
| 2026-05-06 15:26 | 48.73145 | 2.37934 | 298 ft | 5 kts | 198° |
| 2026-05-06 15:26 | 48.73116 | 2.37919 | 298 ft | 4 kts | 198° |
| 2026-05-06 15:26 | 48.73073 | 2.37884 | 301 ft | 10 kts | 234° |
| 2026-05-06 15:27 | 48.73073 | 2.37790 | 296 ft | 9 kts | 285° |
| 2026-05-06 15:27 | 48.73072 | 2.37704 | 297 ft | 8 kts | 261° |
| 2026-05-06 15:27 | 48.73065 | 2.37628 | 300 ft | 0 kts | 260° |